Sunday, December 17, 2017, 4:21 PM EST
Back to Local

KELM, Elmira County Airport

Location: Horseheads, NY, United States Lat: 42.167
Local Time: 4:21 PM EST (21:21 GMT) Lon: -76.9
Time Zone: US/Eastern Elev: 954 ft

Show me the last for .
Show Coded

Time T Td Feel RH Dir Speed Gust Alt SLP Vis Weather Sky Remarks
2017-12-17 15:53 28 20 23 71 60° 5 - 30.18 30.21 10 FEW023 None
2017-12-17 14:53 28 19 24 68 40° 3 - 30.18 30.22 10 CLR None
2017-12-17 13:53 28 19 22 68 70° 6 - 30.19 30.22 10 CLR None
2017-12-17 13:05 27 18 22 68 80° 5 - 30.19 - 10 FEW016 SCT022 OVC050 None
2017-12-17 12:53 27 18 22 68 60° 5 - 30.20 30.24 10 BKN019 OVC050 6-hr Min Temp (1pm): 24.1°F
6-hr Max Temp (1pm): 27.0°F
2017-12-17 11:53 27 18 22 68 90° 5 - 30.23 30.27 10 OVC015 None
2017-12-17 10:53 26 17 - 68 - Calm - 30.26 30.30 10 OVC015 None
2017-12-17 09:53 25 15 19 65 30° 5 - 30.26 30.30 10 OVC017 None
2017-12-17 08:53 24 16 20 70 20° 3 - 30.26 30.30 10 OVC018 None
2017-12-17 07:53 24 16 - 70 - Calm - 30.25 30.29 10 OVC018 None
2017-12-17 06:53 24 17 20 74 20° 3 - 30.24 30.28 10 OVC019 24-hr Precip Total (7am): 0.01"
6-hr Min Temp (7am): 24.1°F
6-hr Max Temp (7am): 25.0°F
2017-12-17 06:16 24 16 20 70 20° 3 - 30.23 - 3 HZ OVC019 None
2017-12-17 06:06 24 16 20 70 30° 3 - 30.22 - 1 HZ OVC019 Variable visibility
2017-12-17 05:53 24 17 20 74 40° 3 - 30.21 30.25 10 OVC019 None
2017-12-17 04:53 24 19 17 80 60° 6 - 30.21 30.24 10 OVC018 None
2017-12-17 03:53 24 19 - 80 - Calm - 30.23 30.27 10 OVC018 None
2017-12-17 02:53 24 20 - 83 - Calm - 30.21 30.25 10 OVC018 None
2017-12-17 01:53 24 19 - 80 - Calm - 30.19 30.23 10 OVC018 None
2017-12-17 00:53 25 19 - 77 - Calm - 30.17 30.21 10 OVC018 6-hr Min Temp (1am): 24.1°F
6-hr Max Temp (1am): 27.0°F
2017-12-16 23:53 25 19 - 77 - Calm - 30.18 30.22 10 OVC018 24-hr Min Temp (12am): 21.9°F
24-hr Max Temp (12am): 28.9°F
2017-12-16 22:53 25 19 19 77 60° 5 - 30.17 30.21 10 OVC018 None
2017-12-16 21:53 25 18 19 74 40° 5 - 30.17 30.20 10 OVC019 None
2017-12-16 20:53 25 19 - 77 - Calm - 30.16 30.20 10 OVC020 None
2017-12-16 19:53 25 19 16 77 30° 8 - 30.14 30.18 10 BKN019 OVC028 None
2017-12-16 19:34 25 20 16 80 40° 8 - 30.14 - 10 BKN019 OVC030 None
2017-12-16 18:53 27 21 19 77 40° 8 - 30.11 30.15 10 OVC033 6-hr Precip Total (7pm): 0.00"
6-hr Min Temp (7pm): 27.0°F
6-hr Max Temp (7pm): 28.9°F
2017-12-16 17:53 27 22 22 80 Variable 5 - 30.08 30.11 10 OVC046 1-hr Precip Total: Trace
2017-12-16 16:53 28 23 24 81 Variable 3 - 30.04 30.08 3 -SN OVC045 1-hr Precip Total: Trace
2017-12-16 16:50 28 25 23 86 10° 5 - 30.04 - 3 -SN BR FEW027 OVC045 1-hr Precip Total: Trace
2017-12-16 16:40 28 24 - 84 - Calm - 30.04 - 2 -SN BR FEW025 SCT034 OVC045 1-hr Precip Total: Trace
2017-12-16 16:30 28 24 23 84 330° 5 - 30.03 - 2 -SN BR FEW016 BKN026 OVC045 1-hr Precip Total: Trace

Support USWX by starting your Amazon purchase here.